Orient, Maine
Current Conditions -  °F | °C
As of 5:31 AM on Friday 24 Oct 2014 (Local Time) from KHUL Reporting Station
Moderate Rain Moderate Rain  
Wind Chill: 39°   Ceiling: 1800
Heat Index: 43°   Visibility: 3mi
Dew Point: 41°   Wind: 6mph
Humidity: 93%   Direction: 10°N
Pressure: 29.76"   Gusts: NA
Location:  45.82°N, 67.84°W
Report Text: KHUL 240931Z AUTO 01005KT 3SM RA BR SCT004 SCT010 OVC018 06/05 A2976 RMK AO2 P0008 T00610050
Loading
Personal Weather Stations






























Interactive Weather Map New forecast layout! Learn more

10-Day Weather Forecast

Advertisements
Track Severe Weather on mobile